Time;durP1;ratioP1;P1;durP2;ratioP2;P2;SDS_P1;SDS_P2;PMS_P1;PMS_P2;Temp;Humidity;BMP_temperature;BMP_pressure;BME280_temperature;BME280_humidity;BME280_pressure;Samples;Min_cycle;Max_cycle;Signal;HPM_P1;HPM_P2
2023/05/26 00:00:17;;;;;;;7.32;4.45;;;;;;;;;;5037536;28;20309;-84
2023/05/26 00:02:45;;;;;;;4.75;4.00;;;;;;;;;;5037401;28;20206;-82
2023/05/26 00:05:16;;;;;;;7.97;3.88;;;;;;;;;;5037298;28;20254;-82
2023/05/26 00:07:44;;;;;;;6.30;4.00;;;;;;;;;;5037044;28;20187;-82
2023/05/26 00:10:13;;;;;;;11.10;4.53;;;;;;;;;;5037054;28;20300;-82
2023/05/26 00:12:41;;;;;;;8.55;3.80;;;;;;;;;;5037214;28;20198;-83
2023/05/26 00:15:09;;;;;;;8.98;4.45;;;;;;;;;;5037166;28;20226;-82
2023/05/26 00:17:37;;;;;;;7.72;4.40;;;;;;;;;;5036871;28;20194;-85
2023/05/26 00:20:07;;;;;;;12.00;3.72;;;;;;;;;;5036530;28;20713;-82
2023/05/26 00:22:35;;;;;;;9.18;4.68;;;;;;;;;;5036934;28;20244;-82
2023/05/26 00:25:04;;;;;;;5.88;3.70;;;;;;;;;;5036863;28;20633;-84
2023/05/26 00:27:32;;;;;;;5.93;4.45;;;;;;;;;;5036475;28;20198;-85
2023/05/26 00:30:00;;;;;;;9.80;4.28;;;;;;;;;;5036518;28;20202;-83
2023/05/26 00:32:27;;;;;;;10.90;4.45;;;;;;;;;;5036669;28;20293;-83
2023/05/26 00:34:55;;;;;;;12.38;5.40;;;;;;;;;;5036662;28;20313;-82
2023/05/26 00:37:23;;;;;;;9.18;4.50;;;;;;;;;;5036218;28;20297;-81
2023/05/26 00:39:51;;;;;;;7.72;4.65;;;;;;;;;;5035942;28;20226;-83
2023/05/26 00:42:19;;;;;;;8.25;4.07;;;;;;;;;;5037469;28;20293;-82
2023/05/26 00:44:47;;;;;;;10.30;4.68;;;;;;;;;;5036498;28;20253;-81
2023/05/26 00:47:15;;;;;;;7.90;4.22;;;;;;;;;;5036943;28;20289;-81
2023/05/26 00:49:42;;;;;;;9.77;5.10;;;;;;;;;;5036206;28;20293;-81
2023/05/26 00:52:10;;;;;;;9.13;3.92;;;;;;;;;;5036853;28;20209;-81
2023/05/26 00:54:39;;;;;;;6.85;4.55;;;;;;;;;;5036078;28;20229;-81
2023/05/26 00:57:07;;;;;;;8.55;4.63;;;;;;;;;;5036740;28;20212;-82
2023/05/26 00:59:35;;;;;;;6.40;4.03;;;;;;;;;;5035811;28;20286;-82
2023/05/26 01:02:04;;;;;;;7.00;4.80;;;;;;;;;;5035671;28;20216;-82
2023/05/26 01:04:32;;;;;;;11.10;4.72;;;;;;;;;;5036679;28;20331;-81
2023/05/26 01:07:00;;;;;;;6.93;4.40;;;;;;;;;;5036328;28;20209;-82
2023/05/26 01:09:27;;;;;;;10.23;4.90;;;;;;;;;;5035932;28;20202;-81
2023/05/26 01:12:01;;;;;;;9.30;4.72;;;;;;;;;;5036424;28;20281;-81
2023/05/26 01:14:37;;;;;;;11.00;4.60;;;;;;;;;;5036282;28;20219;-82
2023/05/26 01:17:11;;;;;;;10.07;4.90;;;;;;;;;;5036770;28;20192;-82
2023/05/26 01:20:09;;;;;;;9.18;4.35;;;;;;;;;;5035785;28;20186;-82
2023/05/26 01:23:11;;;;;;;8.65;4.50;;;;;;;;;;5036118;28;20182;-83
2023/05/26 01:26:15;;;;;;;6.88;4.55;;;;;;;;;;5035898;28;20214;-82
2023/05/26 01:28:45;;;;;;;9.85;5.18;;;;;;;;;;5035137;28;20209;-82
2023/05/26 01:31:13;;;;;;;17.50;6.03;;;;;;;;;;5036376;28;20209;-83
2023/05/26 01:33:40;;;;;;;9.95;5.72;;;;;;;;;;5035128;28;20681;-82
2023/05/26 01:36:08;;;;;;;11.40;6.38;;;;;;;;;;5034716;28;20308;-82
2023/05/26 01:38:35;;;;;;;7.63;4.85;;;;;;;;;;5035084;28;20208;-82
2023/05/26 01:41:10;;;;;;;9.85;4.75;;;;;;;;;;5035725;28;20204;-81
2023/05/26 01:43:44;;;;;;;12.45;4.85;;;;;;;;;;5035806;28;20285;-82
2023/05/26 01:46:20;;;;;;;11.48;5.00;;;;;;;;;;5035308;28;20228;-81
2023/05/26 01:48:49;;;;;;;11.18;5.47;;;;;;;;;;5035337;28;20275;-81
2023/05/26 01:51:17;;;;;;;8.82;4.38;;;;;;;;;;5035133;28;20204;-82
2023/05/26 01:53:46;;;;;;;6.68;4.18;;;;;;;;;;5035347;28;20203;-83
2023/05/26 01:56:15;;;;;;;8.73;4.72;;;;;;;;;;5035055;28;20230;-82
2023/05/26 01:58:46;;;;;;;9.45;4.78;;;;;;;;;;5035062;28;20230;-82
2023/05/26 02:01:13;;;;;;;10.52;5.28;;;;;;;;;;5035453;28;20651;-82
2023/05/26 02:03:42;;;;;;;10.63;5.15;;;;;;;;;;5034819;28;20667;-82
2023/05/26 02:06:09;;;;;;;13.25;5.38;;;;;;;;;;5034806;28;20247;-82
2023/05/26 02:08:37;;;;;;;12.35;5.68;;;;;;;;;;5034777;28;20206;-81
2023/05/26 02:11:04;;;;;;;11.23;4.78;;;;;;;;;;5035156;28;20179;-81
2023/05/26 02:13:32;;;;;;;8.35;4.93;;;;;;;;;;5033342;28;20212;-81
2023/05/26 02:16:01;;;;;;;9.43;4.15;;;;;;;;;;5034507;28;20226;-83
2023/05/26 02:18:28;;;;;;;12.52;4.95;;;;;;;;;;5034020;28;20229;-82
2023/05/26 02:20:56;;;;;;;8.98;4.50;;;;;;;;;;5034419;28;20244;-83
2023/05/26 02:23:23;;;;;;;10.48;4.97;;;;;;;;;;5034280;28;20595;-82
2023/05/26 02:25:50;;;;;;;9.27;4.38;;;;;;;;;;5034385;28;20305;-83
2023/05/26 02:28:18;;;;;;;9.32;4.78;;;;;;;;;;5034064;28;20289;-83
2023/05/26 02:30:45;;;;;;;9.50;4.97;;;;;;;;;;5034073;28;20645;-82
2023/05/26 02:33:14;;;;;;;12.50;5.35;;;;;;;;;;5034749;28;20237;-82
2023/05/26 02:35:42;;;;;;;12.43;4.05;;;;;;;;;;5033929;28;20340;-83
2023/05/26 02:38:09;;;;;;;14.00;4.78;;;;;;;;;;5034207;28;20229;-81
2023/05/26 02:40:36;;;;;;;9.95;4.63;;;;;;;;;;5034003;28;20246;-82
2023/05/26 02:43:04;;;;;;;13.65;5.32;;;;;;;;;;5034264;28;20305;-83
2023/05/26 02:45:31;;;;;;;10.57;4.55;;;;;;;;;;5034069;28;20320;-82
2023/05/26 02:47:59;;;;;;;9.93;4.90;;;;;;;;;;5033546;28;20206;-82
2023/05/26 02:50:28;;;;;;;7.85;4.10;;;;;;;;;;5034050;28;20306;-82
2023/05/26 02:52:55;;;;;;;13.13;5.93;;;;;;;;;;5034190;28;20293;-81
2023/05/26 02:55:24;;;;;;;14.57;4.75;;;;;;;;;;5034098;28;20312;-82
2023/05/26 02:57:52;;;;;;;10.48;5.53;;;;;;;;;;5033250;28;20294;-81
2023/05/26 03:00:20;;;;;;;11.95;4.45;;;;;;;;;;5033179;28;20731;-81
2023/05/26 03:02:48;;;;;;;13.65;4.97;;;;;;;;;;5033585;28;20209;-81
2023/05/26 03:05:15;;;;;;;12.18;5.13;;;;;;;;;;5033823;28;20225;-82
2023/05/26 03:07:44;;;;;;;11.52;5.13;;;;;;;;;;5032761;28;20198;-82
2023/05/26 03:10:12;;;;;;;12.35;5.15;;;;;;;;;;5033289;28;20203;-81
2023/05/26 03:12:40;;;;;;;13.93;4.75;;;;;;;;;;5033569;28;20212;-83
2023/05/26 03:15:11;;;;;;;14.25;5.53;;;;;;;;;;5033247;28;20222;-83
2023/05/26 03:17:38;;;;;;;9.60;4.72;;;;;;;;;;5033428;28;20225;-82
2023/05/26 03:20:08;;;;;;;13.35;5.07;;;;;;;;;;5033146;28;20290;-83
2023/05/26 03:22:35;;;;;;;11.35;5.18;;;;;;;;;;5033322;28;20639;-82
2023/05/26 03:25:05;;;;;;;11.50;5.00;;;;;;;;;;5033267;28;20247;-84
2023/05/26 03:27:32;;;;;;;10.68;4.45;;;;;;;;;;5033268;28;20198;-81
2023/05/26 03:30:00;;;;;;;8.65;3.90;;;;;;;;;;5033284;28;20202;-82
2023/05/26 03:32:28;;;;;;;11.32;5.25;;;;;;;;;;5033503;28;20212;-81
2023/05/26 03:34:55;;;;;;;14.30;5.05;;;;;;;;;;5033519;28;20249;-84
2023/05/26 03:37:23;;;;;;;14.88;4.28;;;;;;;;;;5033454;28;20312;-85
2023/05/26 03:39:51;;;;;;;10.70;4.70;;;;;;;;;;5033474;28;20638;-84
2023/05/26 03:42:20;;;;;;;15.15;5.93;;;;;;;;;;5034624;28;20207;-83
2023/05/26 03:44:47;;;;;;;9.32;4.82;;;;;;;;;;5033940;28;20224;-83
2023/05/26 03:47:15;;;;;;;11.98;4.63;;;;;;;;;;5034231;28;20306;-84
2023/05/26 03:49:42;;;;;;;12.35;5.63;;;;;;;;;;5033922;28;20202;-83
2023/05/26 03:52:10;;;;;;;9.10;4.50;;;;;;;;;;5033800;28;20301;-83
2023/05/26 03:54:37;;;;;;;14.13;4.75;;;;;;;;;;5034295;28;20649;-84
2023/05/26 03:57:05;;;;;;;12.63;4.40;;;;;;;;;;5034037;28;20317;-83
2023/05/26 03:59:34;;;;;;;11.93;4.00;;;;;;;;;;5034122;28;20202;-84
2023/05/26 04:02:02;;;;;;;16.88;5.35;;;;;;;;;;5034124;28;20289;-85
2023/05/26 04:04:29;;;;;;;9.55;4.53;;;;;;;;;;5034009;28;20309;-85
2023/05/26 04:06:57;;;;;;;11.05;4.15;;;;;;;;;;5034963;28;20233;-84
2023/05/26 04:09:24;;;;;;;16.15;4.50;;;;;;;;;;5033350;28;20205;-84
2023/05/26 04:11:52;;;;;;;13.40;4.38;;;;;;;;;;5035442;28;20298;-86
2023/05/26 04:14:19;;;;;;;11.82;4.63;;;;;;;;;;5034127;28;20198;-86
2023/05/26 04:16:48;;;;;;;12.35;4.30;;;;;;;;;;5034966;28;20253;-84
2023/05/26 04:19:15;;;;;;;12.75;4.53;;;;;;;;;;5035069;28;20237;-85
2023/05/26 04:21:43;;;;;;;15.23;5.72;;;;;;;;;;5034671;28;20642;-84
2023/05/26 04:24:10;;;;;;;10.85;4.88;;;;;;;;;;5035024;28;20297;-84
2023/05/26 04:26:38;;;;;;;10.60;4.30;;;;;;;;;;5036705;28;20261;-85
2023/05/26 04:29:05;;;;;;;12.02;4.45;;;;;;;;;;5035961;28;20767;-84
2023/05/26 04:31:33;;;;;;;12.77;5.25;;;;;;;;;;5036812;28;20663;-84
2023/05/26 04:34:02;;;;;;;15.13;4.47;;;;;;;;;;5036040;28;20226;-85
2023/05/26 04:36:32;;;;;;;14.40;4.95;;;;;;;;;;5038497;28;20206;-85
2023/05/26 04:39:01;;;;;;;7.18;4.10;;;;;;;;;;5040564;28;20202;-84
2023/05/26 04:41:29;;;;;;;9.98;4.35;;;;;;;;;;5040232;28;20199;-85
2023/05/26 04:43:56;;;;;;;11.02;4.20;;;;;;;;;;5040217;28;20202;-84
2023/05/26 04:46:24;;;;;;;9.43;4.25;;;;;;;;;;5039277;28;20284;-85
2023/05/26 04:48:52;;;;;;;9.02;3.97;;;;;;;;;;5038359;28;20263;-85
2023/05/26 04:51:21;;;;;;;15.75;4.47;;;;;;;;;;5040046;28;20202;-83
2023/05/26 04:53:48;;;;;;;15.27;5.15;;;;;;;;;;5039927;28;20289;-85
2023/05/26 04:56:16;;;;;;;9.10;4.00;;;;;;;;;;5040057;28;20621;-85
2023/05/26 04:58:43;;;;;;;10.52;4.43;;;;;;;;;;5041047;28;20305;-84
2023/05/26 05:01:11;;;;;;;10.45;5.07;;;;;;;;;;5039764;28;20237;-85
2023/05/26 05:03:38;;;;;;;13.50;4.57;;;;;;;;;;5039546;28;20267;-84
2023/05/26 05:06:06;;;;;;;7.30;4.10;;;;;;;;;;5037932;28;20696;-83
2023/05/26 05:08:35;;;;;;;14.07;5.03;;;;;;;;;;5036861;28;20258;-84
2023/05/26 05:11:03;;;;;;;12.23;6.05;;;;;;;;;;5037185;28;20206;-85
2023/05/26 05:13:30;;;;;;;11.50;4.88;;;;;;;;;;5037837;28;20249;-86
2023/05/26 05:15:57;;;;;;;14.10;6.35;;;;;;;;;;5037541;28;20326;-85
2023/05/26 05:18:25;;;;;;;17.23;6.47;;;;;;;;;;5037364;28;20746;-85
2023/05/26 05:20:53;;;;;;;12.68;5.60;;;;;;;;;;5045290;28;20202;-87
2023/05/26 05:23:20;;;;;;;10.82;5.90;;;;;;;;;;5055636;28;20539;-84
2023/05/26 05:25:50;;;;;;;12.05;5.22;;;;;;;;;;5058001;28;20757;-84
2023/05/26 05:28:17;;;;;;;10.35;4.93;;;;;;;;;;5057558;28;20201;-85
2023/05/26 05:30:45;;;;;;;17.90;7.03;;;;;;;;;;5054742;28;20654;-85
2023/05/26 05:33:12;;;;;;;15.63;6.25;;;;;;;;;;5038288;28;20299;-85
2023/05/26 05:35:40;;;;;;;20.20;5.78;;;;;;;;;;5037780;28;20316;-85
2023/05/26 05:38:07;;;;;;;13.48;5.88;;;;;;;;;;5037388;28;20317;-85
2023/05/26 05:40:34;;;;;;;14.65;6.43;;;;;;;;;;5039920;28;20198;-83
2023/05/26 05:43:03;;;;;;;15.63;6.95;;;;;;;;;;5038476;28;20202;-84
2023/05/26 05:45:31;;;;;;;11.85;6.38;;;;;;;;;;5039231;28;20313;-83
2023/05/26 05:47:58;;;;;;;15.68;6.57;;;;;;;;;;5037808;28;20204;-85
2023/05/26 05:50:26;;;;;;;14.20;5.55;;;;;;;;;;5037476;28;20640;-86
2023/05/26 05:52:53;;;;;;;12.90;5.03;;;;;;;;;;5038549;28;20230;-86
2023/05/26 05:55:21;;;;;;;9.63;5.75;;;;;;;;;;5038365;28;20230;-85
2023/05/26 05:57:49;;;;;;;19.80;6.20;;;;;;;;;;5038020;28;20606;-85
2023/05/26 06:00:19;;;;;;;14.38;6.30;;;;;;;;;;5036553;28;20207;-86
2023/05/26 06:02:46;;;;;;;17.02;5.90;;;;;;;;;;5037005;28;20210;-84
2023/05/26 06:05:14;;;;;;;15.18;6.45;;;;;;;;;;5038919;28;20249;-85
2023/05/26 06:07:41;;;;;;;13.18;4.85;;;;;;;;;;5036928;28;20199;-86
2023/05/26 06:10:10;;;;;;;13.60;6.43;;;;;;;;;;5037180;28;20230;-87
2023/05/26 06:12:38;;;;;;;19.27;7.55;;;;;;;;;;5035899;28;20264;-88
2023/05/26 06:15:06;;;;;;;15.95;6.13;;;;;;;;;;5036451;28;20656;-88
2023/05/26 06:17:35;;;;;;;17.65;6.22;;;;;;;;;;5040340;28;20217;-87
2023/05/26 06:20:03;;;;;;;13.13;5.90;;;;;;;;;;5050948;28;20296;-86
2023/05/26 06:22:30;;;;;;;12.40;5.82;;;;;;;;;;5050985;28;20202;-86
2023/05/26 06:24:58;;;;;;;11.15;5.38;;;;;;;;;;5035119;28;20313;-87
2023/05/26 06:27:25;;;;;;;11.88;5.07;;;;;;;;;;5034932;28;20722;-86
2023/05/26 06:29:53;;;;;;;13.95;5.35;;;;;;;;;;5035324;28;20289;-85
2023/05/26 06:32:20;;;;;;;15.27;6.07;;;;;;;;;;5035341;28;20210;-87
2023/05/26 06:34:49;;;;;;;12.55;6.13;;;;;;;;;;5035305;28;20325;-86
2023/05/26 06:37:16;;;;;;;14.38;5.75;;;;;;;;;;5035372;28;20237;-86
2023/05/26 06:39:44;;;;;;;11.90;4.93;;;;;;;;;;5035560;28;20226;-87
2023/05/26 06:42:11;;;;;;;14.68;5.72;;;;;;;;;;5036117;28;20230;-85
2023/05/26 06:44:39;;;;;;;11.95;4.80;;;;;;;;;;5035114;28;20309;-87
2023/05/26 06:47:08;;;;;;;11.88;5.30;;;;;;;;;;5035288;28;20241;-86
2023/05/26 06:49:35;;;;;;;14.07;7.72;;;;;;;;;;5036722;28;20198;-88
2023/05/26 06:52:05;;;;;;;13.15;5.53;;;;;;;;;;5036718;28;20296;-86
2023/05/26 06:54:32;;;;;;;14.23;6.93;;;;;;;;;;5035757;28;20222;-85
2023/05/26 06:57:02;;;;;;;12.82;5.60;;;;;;;;;;5036650;28;20252;-87
2023/05/26 06:59:30;;;;;;;13.68;5.65;;;;;;;;;;5035398;28;20838;-87
2023/05/26 07:01:57;;;;;;;19.75;6.15;;;;;;;;;;5035735;28;20210;-87
2023/05/26 07:04:25;;;;;;;11.88;5.80;;;;;;;;;;5036112;28;20276;-86
2023/05/26 07:06:52;;;;;;;12.63;6.85;;;;;;;;;;5035872;28;20697;-87
2023/05/26 07:09:21;;;;;;;12.82;5.90;;;;;;;;;;5036880;28;20630;-87
2023/05/26 07:11:49;;;;;;;13.93;5.68;;;;;;;;;;5036750;28;20229;-86
2023/05/26 07:14:16;;;;;;;22.65;6.43;;;;;;;;;;5036171;28;20294;-87
2023/05/26 07:16:44;;;;;;;13.68;6.22;;;;;;;;;;5034901;28;20209;-88
2023/05/26 07:19:11;;;;;;;14.20;5.57;;;;;;;;;;5035085;28;20694;-87
2023/05/26 07:21:38;;;;;;;12.48;5.55;;;;;;;;;;5034452;28;20250;-86
2023/05/26 07:24:06;;;;;;;12.90;6.25;;;;;;;;;;5035078;28;20632;-87
2023/05/26 07:26:35;;;;;;;14.10;5.75;;;;;;;;;;5034635;28;20203;-86
2023/05/26 07:29:03;;;;;;;14.95;6.25;;;;;;;;;;5035462;28;20285;-86
2023/05/26 07:31:30;;;;;;;13.45;6.65;;;;;;;;;;5036272;28;20202;-85
2023/05/26 07:33:58;;;;;;;11.23;5.40;;;;;;;;;;5035671;28;20302;-86
2023/05/26 07:36:25;;;;;;;9.77;6.43;;;;;;;;;;5035942;28;20229;-87
2023/05/26 07:38:53;;;;;;;14.73;6.43;;;;;;;;;;5034887;28;20257;-86
2023/05/26 07:41:21;;;;;;;12.20;6.18;;;;;;;;;;5034727;28;20237;-86
2023/05/26 07:43:50;;;;;;;16.02;7.10;;;;;;;;;;5035189;28;20288;-87
2023/05/26 07:46:17;;;;;;;16.77;6.97;;;;;;;;;;5035943;28;20249;-86
2023/05/26 07:48:45;;;;;;;18.60;6.95;;;;;;;;;;5035585;28;20234;-86
2023/05/26 07:51:12;;;;;;;16.63;7.28;;;;;;;;;;5036071;28;20212;-87
2023/05/26 07:53:40;;;;;;;22.55;6.85;;;;;;;;;;5035152;28;20202;-86
2023/05/26 07:56:07;;;;;;;14.73;6.35;;;;;;;;;;5034759;28;20257;-85
2023/05/26 07:58:35;;;;;;;12.75;6.55;;;;;;;;;;5035010;28;20230;-87
2023/05/26 08:01:06;;;;;;;16.13;6.63;;;;;;;;;;5035886;28;20206;-86
2023/05/26 08:03:34;;;;;;;17.08;6.85;;;;;;;;;;5036680;28;20628;-87
2023/05/26 08:06:01;;;;;;;14.90;5.90;;;;;;;;;;5035039;28;20317;-87
2023/05/26 08:08:28;;;;;;;15.98;7.47;;;;;;;;;;5034775;28;20285;-87
2023/05/26 08:10:56;;;;;;;16.50;7.57;;;;;;;;;;5034561;28;20235;-88
2023/05/26 08:13:23;;;;;;;20.10;7.15;;;;;;;;;;5040849;28;20613;-85
2023/05/26 08:15:51;;;;;;;14.45;6.40;;;;;;;;;;5041494;28;20731;-86
2023/05/26 08:18:20;;;;;;;15.00;8.10;;;;;;;;;;5040708;28;20238;-88
2023/05/26 08:20:52;;;;;;;15.18;6.57;;;;;;;;;;5060365;28;20249;-87
2023/05/26 08:23:20;;;;;;;17.20;6.63;;;;;;;;;;5059851;28;20185;-86
2023/05/26 08:25:47;;;;;;;10.50;5.65;;;;;;;;;;5058195;28;20229;-86
2023/05/26 08:28:15;;;;;;;11.98;6.70;;;;;;;;;;5057347;28;20197;-86
2023/05/26 08:30:44;;;;;;;19.17;6.78;;;;;;;;;;5054096;28;20289;-87
2023/05/26 08:33:12;;;;;;;15.00;7.72;;;;;;;;;;5036406;28;20314;-86
2023/05/26 08:35:40;;;;;;;12.27;5.95;;;;;;;;;;5035953;28;20684;-86
2023/05/26 08:38:08;;;;;;;20.83;6.63;;;;;;;;;;5037882;28;20297;-87
2023/05/26 08:40:35;;;;;;;15.98;6.45;;;;;;;;;;5037908;28;20232;-87
2023/05/26 08:43:08;;;;;;;16.27;7.18;;;;;;;;;;5037863;28;20209;-86
2023/05/26 08:45:35;;;;;;;12.18;6.13;;;;;;;;;;5038299;28;20226;-86
2023/05/26 08:48:03;;;;;;;11.15;6.95;;;;;;;;;;5037106;28;20289;-86
2023/05/26 08:50:31;;;;;;;22.60;7.85;;;;;;;;;;5037160;28;20202;-85
2023/05/26 08:53:02;;;;;;;18.25;7.55;;;;;;;;;;5036915;28;20652;-85
2023/05/26 08:55:29;;;;;;;18.17;9.48;;;;;;;;;;5036900;28;20227;-86
2023/05/26 08:57:58;;;;;;;15.43;8.45;;;;;;;;;;5036895;28;20281;-85
2023/05/26 09:00:29;;;;;;;13.98;6.38;;;;;;;;;;5036820;28;20226;-87
2023/05/26 09:02:57;;;;;;;18.77;8.23;;;;;;;;;;5037067;28;20187;-85
2023/05/26 09:05:24;;;;;;;14.80;6.88;;;;;;;;;;5036980;28;20242;-87
2023/05/26 09:07:52;;;;;;;15.18;7.35;;;;;;;;;;5036644;28;20206;-86
2023/05/26 09:10:25;;;;;;;14.88;6.72;;;;;;;;;;5036404;28;20289;-86
2023/05/26 09:13:04;;;;;;;13.35;7.45;;;;;;;;;;5036444;28;20290;-88
2023/05/26 09:15:32;;;;;;;13.63;7.00;;;;;;;;;;5035967;28;20756;-87
2023/05/26 09:18:07;;;;;;;18.63;6.38;;;;;;;;;;5036495;28;20226;-87
2023/05/26 09:20:34;;;;;;;15.65;6.07;;;;;;;;;;5023891;28;20300;-85
2023/05/26 09:23:03;;;;;;;16.05;6.53;;;;;;;;;;5054212;28;20209;-87
2023/05/26 09:25:35;;;;;;;16.95;8.45;;;;;;;;;;5043405;28;20322;-86
2023/05/26 09:28:05;;;;;;;12.57;5.65;;;;;;;;;;5034966;28;20193;-88
2023/05/26 09:30:37;;;;;;;11.02;5.78;;;;;;;;;;5034715;28;20198;-87
2023/05/26 09:33:05;;;;;;;12.00;6.70;;;;;;;;;;5016473;28;20183;-87
2023/05/26 09:35:37;;;;;;;14.48;7.32;;;;;;;;;;5033323;22;20248;-81
2023/05/26 09:38:06;;;;;;;14.20;7.05;;;;;;;;;;5073048;28;20215;-80
2023/05/26 09:40:35;;;;;;;15.00;6.63;;;;;;;;;;5075293;28;20720;-81
2023/05/26 09:43:03;;;;;;;11.90;6.40;;;;;;;;;;5074497;28;20193;-81
2023/05/26 09:45:35;;;;;;;9.93;5.68;;;;;;;;;;5072776;28;20201;-80
2023/05/26 09:48:04;;;;;;;13.55;6.72;;;;;;;;;;5063043;28;20676;-82
2023/05/26 09:50:32;;;;;;;12.15;6.25;;;;;;;;;;5063703;28;20225;-82
2023/05/26 09:53:02;;;;;;;7.70;5.53;;;;;;;;;;5058005;28;20205;-82
2023/05/26 09:55:30;;;;;;;14.35;7.28;;;;;;;;;;5054798;28;20292;-80
2023/05/26 09:58:04;;;;;;;13.70;5.10;;;;;;;;;;5055378;28;20202;-81
2023/05/26 10:00:32;;;;;;;20.77;6.72;;;;;;;;;;5059934;28;20216;-82
2023/05/26 10:03:03;;;;;;;8.10;6.13;;;;;;;;;;5074116;28;20207;-80
2023/05/26 10:05:31;;;;;;;9.07;5.25;;;;;;;;;;5073639;28;20201;-80
2023/05/26 10:07:59;;;;;;;12.57;6.03;;;;;;;;;;5073871;28;20212;-81
2023/05/26 10:10:27;;;;;;;11.85;5.32;;;;;;;;;;5067140;28;20644;-80
2023/05/26 10:12:55;;;;;;;11.23;5.25;;;;;;;;;;5054027;28;20288;-80
2023/05/26 10:15:24;;;;;;;17.83;7.03;;;;;;;;;;5053229;28;20202;-81
2023/05/26 10:17:51;;;;;;;6.68;4.70;;;;;;;;;;5053250;28;20205;-82
2023/05/26 10:20:20;;;;;;;12.02;5.65;;;;;;;;;;5068095;28;20343;-80
2023/05/26 10:22:52;;;;;;;11.68;5.25;;;;;;;;;;5073797;28;20205;-81
2023/05/26 10:25:23;;;;;;;9.38;5.40;;;;;;;;;;5073819;28;20204;-81
2023/05/26 10:27:57;;;;;;;7.30;5.53;;;;;;;;;;5073624;28;20228;-81
2023/05/26 10:30:26;;;;;;;10.40;5.45;;;;;;;;;;5073570;28;20282;-81
2023/05/26 10:32:56;;;;;;;10.73;5.97;;;;;;;;;;5073497;28;20212;-81
2023/05/26 10:35:28;;;;;;;12.05;5.60;;;;;;;;;;5072503;28;20197;-82
2023/05/26 10:37:58;;;;;;;12.63;6.40;;;;;;;;;;5073358;28;20204;-80
2023/05/26 10:40:30;;;;;;;12.55;5.68;;;;;;;;;;5073177;28;20232;-82
2023/05/26 10:43:01;;;;;;;7.43;4.03;;;;;;;;;;5073216;28;20201;-82
2023/05/26 10:45:33;;;;;;;10.90;5.28;;;;;;;;;;5073763;28;20227;-82
2023/05/26 10:48:09;;;;;;;10.38;5.20;;;;;;;;;;5073096;28;20189;-81
2023/05/26 10:51:06;;;;;;;12.27;5.05;;;;;;;;;;5073068;28;20221;-79
2023/05/26 10:53:35;;;;;;;5.53;3.63;;;;;;;;;;5073230;28;20629;-83
2023/05/26 10:56:08;;;;;;;10.15;5.47;;;;;;;;;;5073312;28;20204;-81
2023/05/26 10:58:37;;;;;;;12.93;5.72;;;;;;;;;;5072736;28;20251;-81
2023/05/26 11:01:12;;;;;;;12.48;5.00;;;;;;;;;;5074335;28;20312;-81
2023/05/26 11:03:43;;;;;;;11.65;5.10;;;;;;;;;;5073225;28;20810;-81
2023/05/26 11:06:11;;;;;;;13.38;5.10;;;;;;;;;;5072496;28;20197;-81
2023/05/26 11:08:42;;;;;;;14.32;6.35;;;;;;;;;;5072110;28;20208;-81
2023/05/26 11:11:11;;;;;;;6.55;5.70;;;;;;;;;;5072613;28;20221;-82
2023/05/26 11:14:05;;;;;;;9.43;5.35;;;;;;;;;;5072788;28;20215;-80
2023/05/26 11:16:37;;;;;;;11.32;5.47;;;;;;;;;;5073068;28;20207;-82
2023/05/26 11:19:07;;;;;;;9.23;4.85;;;;;;;;;;5072398;28;20208;-81
2023/05/26 11:21:35;;;;;;;8.65;4.03;;;;;;;;;;5072420;28;20224;-81
2023/05/26 11:24:04;;;;;;;9.50;4.68;;;;;;;;;;5072885;28;20201;-80
2023/05/26 11:26:34;;;;;;;13.50;6.55;;;;;;;;;;5072910;28;20288;-83
2023/05/26 11:29:04;;;;;;;11.45;5.38;;;;;;;;;;5072361;28;20223;-80
2023/05/26 11:31:31;;;;;;;6.65;4.35;;;;;;;;;;5072376;28;20299;-79
2023/05/26 11:34:00;;;;;;;9.73;4.90;;;;;;;;;;5078895;28;20207;-81
2023/05/26 11:36:28;;;;;;;8.80;4.60;;;;;;;;;;5074268;28;20205;-85
2023/05/26 11:39:00;;;;;;;11.40;4.85;;;;;;;;;;5075131;28;20262;-83
2023/05/26 11:41:29;;;;;;;18.20;7.40;;;;;;;;;;5074701;28;20225;-82
2023/05/26 11:43:57;;;;;;;11.75;5.63;;;;;;;;;;5074270;28;20691;-81
2023/05/26 11:46:29;;;;;;;8.25;3.95;;;;;;;;;;5077306;28;20205;-81
2023/05/26 11:48:56;;;;;;;9.40;5.78;;;;;;;;;;5078135;28;20205;-83
2023/05/26 11:51:25;;;;;;;11.68;5.20;;;;;;;;;;5077581;28;20307;-83
2023/05/26 11:53:58;;;;;;;10.45;5.00;;;;;;;;;;5077802;28;20292;-83
2023/05/26 11:56:34;;;;;;;9.60;3.95;;;;;;;;;;5078449;28;20584;-81
2023/05/26 11:59:02;;;;;;;9.50;4.75;;;;;;;;;;5076778;28;20215;-82
2023/05/26 12:01:32;;;;;;;12.57;4.80;;;;;;;;;;5077138;28;20608;-80
2023/05/26 12:04:00;;;;;;;10.13;4.07;;;;;;;;;;5077713;28;20204;-83
2023/05/26 12:06:30;;;;;;;7.22;4.13;;;;;;;;;;5077458;28;20287;-82
2023/05/26 12:09:00;;;;;;;7.05;3.50;;;;;;;;;;5076298;28;20291;-83
2023/05/26 12:11:33;;;;;;;9.80;4.65;;;;;;;;;;5077573;28;20247;-82
2023/05/26 12:14:03;;;;;;;10.57;4.80;;;;;;;;;;5076960;28;20205;-83
2023/05/26 12:16:33;;;;;;;9.27;4.45;;;;;;;;;;5076224;28;20201;-81
2023/05/26 12:19:02;;;;;;;9.13;4.15;;;;;;;;;;5076170;28;20211;-82
2023/05/26 12:21:33;;;;;;;9.88;4.47;;;;;;;;;;5075966;28;20319;-82
2023/05/26 12:24:00;;;;;;;8.57;3.53;;;;;;;;;;5075179;28;20201;-83
2023/05/26 12:26:30;;;;;;;8.15;3.92;;;;;;;;;;5075431;28;20288;-83
2023/05/26 12:29:09;;;;;;;6.43;2.83;;;;;;;;;;5076038;28;20216;-82
2023/05/26 12:31:45;;;;;;;8.23;4.07;;;;;;;;;;5076022;28;20303;-81
2023/05/26 12:34:20;;;;;;;10.93;4.82;;;;;;;;;;5075596;28;20650;-81
2023/05/26 12:36:49;;;;;;;11.10;3.95;;;;;;;;;;5075207;28;20215;-82
2023/05/26 12:39:18;;;;;;;7.45;3.72;;;;;;;;;;5075252;28;20683;-83
2023/05/26 12:41:46;;;;;;;9.20;5.25;;;;;;;;;;5075053;28;20228;-81
2023/05/26 12:44:14;;;;;;;7.85;3.13;;;;;;;;;;5075011;28;20216;-82
2023/05/26 12:46:42;;;;;;;8.52;4.00;;;;;;;;;;5074978;28;20291;-81
2023/05/26 12:49:10;;;;;;;9.77;3.25;;;;;;;;;;5074569;28;20215;-82
2023/05/26 12:51:40;;;;;;;7.57;4.13;;;;;;;;;;5075015;28;20730;-83
2023/05/26 12:54:10;;;;;;;4.35;3.22;;;;;;;;;;5075467;28;20545;-81
2023/05/26 12:56:38;;;;;;;7.30;3.88;;;;;;;;;;5074277;28;20205;-81
2023/05/26 12:59:06;;;;;;;9.68;3.70;;;;;;;;;;5074108;28;20293;-82
2023/05/26 13:01:33;;;;;;;7.82;3.80;;;;;;;;;;5074414;28;20220;-81
2023/05/26 13:04:01;;;;;;;9.65;3.85;;;;;;;;;;5074394;28;20299;-81
2023/05/26 13:06:29;;;;;;;8.63;3.83;;;;;;;;;;5074790;28;20197;-82
2023/05/26 13:08:57;;;;;;;7.32;4.28;;;;;;;;;;5074210;28;20279;-80
2023/05/26 13:11:26;;;;;;;7.15;3.90;;;;;;;;;;5074536;28;20225;-82
2023/05/26 13:13:53;;;;;;;10.00;4.05;;;;;;;;;;5074423;28;20280;-81
2023/05/26 13:16:22;;;;;;;6.13;3.50;;;;;;;;;;5074259;28;20291;-80
2023/05/26 13:18:50;;;;;;;9.77;3.55;;;;;;;;;;5075617;28;20205;-81
2023/05/26 13:21:17;;;;;;;9.77;5.07;;;;;;;;;;5074692;28;20651;-81
2023/05/26 13:23:45;;;;;;;13.45;4.53;;;;;;;;;;5074113;28;20228;-81
2023/05/26 13:26:13;;;;;;;7.45;3.95;;;;;;;;;;5074359;28;20209;-83
2023/05/26 13:28:43;;;;;;;8.63;3.47;;;;;;;;;;5072861;28;20197;-80
2023/05/26 13:31:11;;;;;;;8.88;4.47;;;;;;;;;;5074272;28;20221;-80
2023/05/26 13:33:39;;;;;;;7.68;3.13;;;;;;;;;;5073311;28;20332;-81
2023/05/26 13:36:06;;;;;;;9.63;4.57;;;;;;;;;;5073719;28;20680;-80
2023/05/26 13:38:34;;;;;;;8.82;3.35;;;;;;;;;;5073412;28;20748;-81
2023/05/26 13:41:01;;;;;;;5.65;3.30;;;;;;;;;;5068727;28;20213;-80
2023/05/26 13:43:29;;;;;;;8.52;4.00;;;;;;;;;;5063261;28;20224;-83
2023/05/26 13:45:58;;;;;;;8.10;4.30;;;;;;;;;;5057924;28;20209;-83
2023/05/26 13:48:25;;;;;;;12.00;4.60;;;;;;;;;;5073095;28;20791;-83
2023/05/26 13:50:53;;;;;;;5.50;2.85;;;;;;;;;;5076591;28;20580;-83
2023/05/26 13:53:20;;;;;;;4.57;2.65;;;;;;;;;;5076333;28;20635;-82
2023/05/26 13:55:49;;;;;;;7.55;3.25;;;;;;;;;;5072728;28;20207;-83
2023/05/26 13:58:17;;;;;;;13.80;3.63;;;;;;;;;;5072828;28;20209;-82
2023/05/26 14:00:45;;;;;;;6.47;4.20;;;;;;;;;;5074288;28;20223;-82
2023/05/26 14:03:14;;;;;;;6.32;3.25;;;;;;;;;;5074136;28;20670;-83
2023/05/26 14:05:43;;;;;;;8.75;3.85;;;;;;;;;;5073939;28;20203;-82
2023/05/26 14:08:10;;;;;;;5.30;2.95;;;;;;;;;;5073789;28;20205;-82
2023/05/26 14:10:38;;;;;;;6.60;3.03;;;;;;;;;;5073484;28;20221;-83
2023/05/26 14:13:05;;;;;;;7.57;4.18;;;;;;;;;;5073674;28;20204;-83
2023/05/26 14:15:33;;;;;;;6.57;3.13;;;;;;;;;;5074208;28;20197;-81
2023/05/26 14:18:00;;;;;;;6.80;2.55;;;;;;;;;;5072953;28;20588;-82
2023/05/26 14:20:29;;;;;;;4.60;2.58;;;;;;;;;;5073448;28;20307;-82
2023/05/26 14:22:56;;;;;;;5.35;2.97;;;;;;;;;;5073530;28;20248;-81
2023/05/26 14:25:24;;;;;;;8.93;2.80;;;;;;;;;;5073968;28;20201;-84
2023/05/26 14:27:51;;;;;;;9.05;2.88;;;;;;;;;;5074338;28;20288;-83
2023/05/26 14:30:22;;;;;;;5.40;2.70;;;;;;;;;;5073996;28;20224;-81
2023/05/26 14:32:50;;;;;;;6.88;3.03;;;;;;;;;;5073649;28;20242;-82
2023/05/26 14:35:17;;;;;;;5.75;2.50;;;;;;;;;;5073823;28;20287;-83
2023/05/26 14:37:46;;;;;;;4.53;2.70;;;;;;;;;;5072289;28;20299;-80
2023/05/26 14:40:14;;;;;;;4.55;2.50;;;;;;;;;;5072716;28;20316;-82
2023/05/26 14:42:42;;;;;;;9.38;3.03;;;;;;;;;;5072885;28;20204;-82
2023/05/26 14:45:11;;;;;;;6.70;2.63;;;;;;;;;;5072399;28;20228;-80